createdAt,value
2022-08-09T00:01:20.965Z,15.20
2022-08-09T00:04:06.004Z,15.20
2022-08-09T00:06:15.705Z,15.20
2022-08-09T00:07:20.825Z,15.10
2022-08-09T00:09:21.005Z,15.00
2022-08-09T00:11:24.970Z,15.00
2022-08-09T00:13:20.834Z,15.00
2022-08-09T00:15:26.416Z,15.20
2022-08-09T00:18:10.950Z,15.30
2022-08-09T00:19:20.860Z,15.30
2022-08-09T00:21:20.845Z,15.40
2022-08-09T00:23:54.643Z,15.40
2022-08-09T00:25:23.339Z,15.50
2022-08-09T00:27:20.855Z,15.50
2022-08-09T00:29:39.613Z,15.50
2022-08-09T00:31:58.209Z,15.50
2022-08-09T00:33:20.858Z,15.40
2022-08-09T00:35:20.877Z,15.30
2022-08-09T00:37:20.924Z,15.30
2022-08-09T00:40:13.403Z,15.20
2022-08-09T00:44:13.946Z,15.00
2022-08-09T00:44:17.148Z,15.10
2022-08-09T00:45:20.918Z,15.00
2022-08-09T00:47:20.864Z,15.00
2022-08-09T00:49:20.869Z,15.00
2022-08-09T00:51:20.881Z,14.90
2022-08-09T00:53:51.826Z,14.80
2022-08-09T00:56:03.287Z,14.60
2022-08-09T00:57:50.897Z,14.50
2022-08-09T00:59:52.450Z,14.50
2022-08-09T01:01:50.967Z,14.40
2022-08-09T01:03:50.965Z,14.50
2022-08-09T01:05:53.684Z,14.50
2022-08-09T01:07:59.682Z,14.50
2022-08-09T01:09:50.883Z,14.50
2022-08-09T01:11:55.401Z,14.40
2022-08-09T01:13:59.355Z,14.40
2022-08-09T01:15:51.612Z,14.20
2022-08-09T01:17:51.993Z,14.20
2022-08-09T01:20:01.783Z,14.20
2022-08-09T01:21:53.559Z,14.30
2022-08-09T01:24:03.632Z,14.40
2022-08-09T01:25:51.233Z,14.40
2022-08-09T01:27:51.069Z,14.40
2022-08-09T01:29:55.964Z,14.30
2022-08-09T01:32:30.768Z,14.20
2022-08-09T01:33:50.992Z,14.30
2022-08-09T01:35:51.793Z,14.40
2022-08-09T01:38:07.730Z,14.40
2022-08-09T01:39:50.966Z,14.50
2022-08-09T01:41:55.609Z,14.60
2022-08-09T01:45:50.973Z,15.00
2022-08-09T01:49:54.646Z,15.00
2022-08-09T01:51:53.521Z,15.20
2022-08-09T01:55:59.189Z,15.30
2022-08-09T01:57:59.230Z,15.40
2022-08-09T02:00:00.190Z,15.40
2022-08-09T02:02:01.214Z,15.40
2022-08-09T02:03:59.227Z,15.60
2022-08-09T02:06:06.541Z,15.60
2022-08-09T02:08:40.140Z,15.90
2022-08-09T02:10:01.479Z,16.00
2022-08-09T02:11:59.223Z,16.00
2022-08-09T02:14:07.704Z,16.10
2022-08-09T02:15:59.307Z,16.10
2022-08-09T02:18:09.910Z,16.10
2022-08-09T02:19:59.224Z,16.10
2022-08-09T02:21:59.232Z,16.10
2022-08-09T02:23:59.241Z,16.10
2022-08-09T02:25:59.256Z,16.10
2022-08-09T02:28:03.614Z,16.00
2022-08-09T02:29:59.245Z,16.00
2022-08-09T02:31:59.234Z,16.00
2022-08-09T02:34:13.387Z,16.00
2022-08-09T02:36:03.001Z,15.90
2022-08-09T02:37:59.250Z,15.80
2022-08-09T02:40:01.837Z,15.70
2022-08-09T02:41:59.276Z,15.60
2022-08-09T02:43:59.239Z,15.60
2022-08-09T02:45:59.247Z,15.40
2022-08-09T02:47:59.773Z,15.20
2022-08-09T02:50:01.456Z,15.00
2022-08-09T02:51:59.253Z,14.80
2022-08-09T02:54:00.829Z,14.80
2022-08-09T02:55:59.246Z,14.60
2022-08-09T02:58:32.028Z,14.40
2022-08-09T03:00:21.166Z,14.20
2022-08-09T03:02:06.378Z,14.20
2022-08-09T03:04:18.467Z,14.10
2022-08-09T03:05:59.266Z,13.90
2022-08-09T03:07:59.286Z,13.80
2022-08-09T03:09:59.339Z,13.80
2022-08-09T03:12:05.283Z,13.80
2022-08-09T03:14:01.660Z,13.60
2022-08-09T03:16:06.634Z,13.50
2022-08-09T03:17:59.284Z,13.40
2022-08-09T03:20:02.814Z,13.40
2022-08-09T03:21:59.258Z,13.40
2022-08-09T03:24:04.275Z,13.30
2022-08-09T03:26:31.954Z,13.30
2022-08-09T03:28:29.295Z,13.30
2022-08-09T03:30:34.082Z,13.70
2022-08-09T03:32:29.307Z,13.90
2022-08-09T03:34:29.310Z,13.90
2022-08-09T03:36:29.302Z,14.00
2022-08-09T03:38:30.505Z,14.00
2022-08-09T03:40:31.100Z,14.00
2022-08-09T03:42:30.761Z,14.00
2022-08-09T03:44:32.066Z,14.00
2022-08-09T03:46:30.347Z,14.00
2022-08-09T03:48:31.062Z,14.00
2022-08-09T03:50:31.957Z,14.00
2022-08-09T03:52:29.349Z,14.10
2022-08-09T03:54:31.145Z,14.10
2022-08-09T03:56:29.352Z,14.20
2022-08-09T03:58:29.290Z,14.30
2022-08-09T04:00:29.362Z,14.30
2022-08-09T04:02:29.494Z,14.30
2022-08-09T04:04:32.516Z,15.10
2022-08-09T04:06:29.298Z,15.50
2022-08-09T04:08:29.723Z,15.60
2022-08-09T04:10:30.365Z,15.60
2022-08-09T04:12:30.440Z,15.60
2022-08-09T04:14:53.085Z,15.60
2022-08-09T04:16:29.350Z,15.40
2022-08-09T04:18:29.319Z,15.40
2022-08-09T04:20:29.307Z,15.20
2022-08-09T04:22:29.515Z,15.20
2022-08-09T04:24:29.432Z,15.00
2022-08-09T04:26:37.996Z,15.00
2022-08-09T04:28:33.846Z,15.00
2022-08-09T04:30:29.326Z,15.00
2022-08-09T04:32:34.059Z,15.00
2022-08-09T04:34:30.615Z,15.00
2022-08-09T04:36:29.424Z,14.90
2022-08-09T04:38:29.353Z,14.90
2022-08-09T04:40:36.590Z,14.90
2022-08-09T04:42:29.649Z,14.90
2022-08-09T04:44:29.358Z,15.00
2022-08-09T04:46:37.641Z,14.90
2022-08-09T04:48:33.463Z,14.80
2022-08-09T04:50:34.852Z,14.80
2022-08-09T04:52:29.414Z,14.80
2022-08-09T04:54:29.351Z,14.70
2022-08-09T04:56:29.349Z,14.70
2022-08-09T04:58:31.948Z,14.70
2022-08-09T05:00:31.915Z,14.60
2022-08-09T05:02:29.406Z,14.50
2022-08-09T05:04:31.121Z,14.50
2022-08-09T05:06:32.630Z,14.40
2022-08-09T05:08:29.362Z,14.40
2022-08-09T05:10:29.349Z,14.40
2022-08-09T05:12:29.347Z,14.40
2022-08-09T05:14:29.372Z,14.60
2022-08-09T05:16:31.633Z,15.00
2022-08-09T05:18:39.215Z,15.00
2022-08-09T05:20:29.545Z,15.00
2022-08-09T05:23:55.492Z,15.20
2022-08-09T05:25:01.019Z,15.20
2022-08-09T05:26:59.344Z,15.60
2022-08-09T05:28:59.372Z,15.60
2022-08-09T05:30:59.438Z,15.70
2022-08-09T05:32:59.360Z,15.90
2022-08-09T05:34:59.394Z,15.90
2022-08-09T05:37:01.798Z,15.90
2022-08-09T05:38:59.450Z,16.20
2022-08-09T05:40:59.362Z,16.40
2022-08-09T05:42:59.363Z,16.60
2022-08-09T05:44:59.401Z,16.70
2022-08-09T05:46:59.389Z,16.70
2022-08-09T05:48:59.471Z,16.90
2022-08-09T05:51:41.729Z,17.10
2022-08-09T05:52:59.374Z,17.10
2022-08-09T05:55:06.767Z,17.50
2022-08-09T05:56:59.398Z,17.50
2022-08-09T05:58:59.380Z,17.60
2022-08-09T06:00:59.438Z,17.80
2022-08-09T06:02:59.461Z,18.00
2022-08-09T06:04:59.381Z,18.00
2022-08-09T06:06:59.395Z,18.00
2022-08-09T06:08:59.386Z,18.00
2022-08-09T06:10:59.398Z,18.10
2022-08-09T06:13:11.737Z,18.20
2022-08-09T06:15:01.565Z,18.20
2022-08-09T06:16:59.400Z,18.40
2022-08-09T06:18:59.396Z,18.50
2022-08-09T06:20:59.386Z,18.60
2022-08-09T06:22:59.403Z,18.80
2022-08-09T06:24:59.424Z,18.80
2022-08-09T06:26:59.413Z,18.80
2022-08-09T06:29:05.093Z,19.00
2022-08-09T06:30:59.399Z,19.20
2022-08-09T06:33:29.923Z,19.20
2022-08-09T06:34:59.401Z,19.20
2022-08-09T06:37:00.061Z,19.40
2022-08-09T06:38:59.424Z,19.60
2022-08-09T06:40:59.511Z,19.80
2022-08-09T06:42:59.419Z,19.80
2022-08-09T06:45:00.306Z,19.80
2022-08-09T06:46:59.418Z,20.00
2022-08-09T06:49:00.357Z,20.00
2022-08-09T06:50:59.472Z,20.20
2022-08-09T06:52:59.425Z,20.20
2022-08-09T06:54:59.418Z,20.20
2022-08-09T06:56:59.426Z,20.30
2022-08-09T07:00:55.236Z,20.40
2022-08-09T07:00:59.871Z,20.40
2022-08-09T07:02:59.429Z,20.50
2022-08-09T07:04:59.834Z,20.40
2022-08-09T07:07:00.618Z,20.50
2022-08-09T07:08:59.462Z,20.70
2022-08-09T07:10:59.446Z,20.70
2022-08-09T07:12:59.451Z,20.80
2022-08-09T07:14:59.422Z,20.80
2022-08-09T07:16:59.433Z,21.10
2022-08-09T07:18:59.447Z,21.20
2022-08-09T07:21:30.862Z,21.30
2022-08-09T07:23:29.472Z,21.40
2022-08-09T07:25:29.446Z,21.40
2022-08-09T07:27:34.509Z,21.40
2022-08-09T07:29:37.699Z,21.60
2022-08-09T07:31:29.461Z,21.60
2022-08-09T07:33:30.913Z,21.60
2022-08-09T07:35:29.449Z,21.80
2022-08-09T07:37:29.570Z,21.90
2022-08-09T07:39:41.577Z,22.00
2022-08-09T07:41:33.157Z,22.00
2022-08-09T07:43:29.452Z,22.00
2022-08-09T07:45:39.368Z,22.30
2022-08-09T07:47:29.542Z,22.30
2022-08-09T07:49:29.455Z,22.50
2022-08-09T07:52:04.895Z,22.60
2022-08-09T07:54:01.639Z,22.60
2022-08-09T07:55:29.462Z,22.60
2022-08-09T07:57:36.247Z,22.80
2022-08-09T07:59:34.390Z,23.10
2022-08-09T08:01:34.338Z,23.10
2022-08-09T08:03:29.494Z,23.50
2022-08-09T08:05:29.494Z,23.90
2022-08-09T08:08:43.258Z,24.10
2022-08-09T08:09:38.588Z,24.20
2022-08-09T08:12:10.917Z,24.20
2022-08-09T08:13:29.489Z,24.20
2022-08-09T08:15:29.514Z,24.40
2022-08-09T08:17:52.218Z,24.50
2022-08-09T08:19:31.352Z,24.70
2022-08-09T08:21:29.507Z,24.70
2022-08-09T08:23:29.480Z,24.80
2022-08-09T08:25:43.788Z,24.80
2022-08-09T08:27:29.499Z,25.10
2022-08-09T08:29:39.147Z,24.90
2022-08-09T08:32:02.544Z,24.90
2022-08-09T08:33:49.512Z,25.30
2022-08-09T08:35:52.882Z,25.30
2022-08-09T08:37:41.051Z,25.30
2022-08-09T08:39:29.591Z,25.30
2022-08-09T08:41:41.994Z,25.30
2022-08-09T08:43:29.592Z,25.30
2022-08-09T08:45:36.845Z,25.70
2022-08-09T08:47:29.527Z,26.00
2022-08-09T08:49:33.435Z,26.00
2022-08-09T08:51:38.773Z,26.00
2022-08-09T08:53:32.126Z,25.90
2022-08-09T08:57:29.577Z,25.90
2022-08-09T08:59:47.048Z,25.90
2022-08-09T09:03:33.036Z,26.10
2022-08-09T09:06:00.417Z,26.30
2022-08-09T09:07:54.719Z,26.30
2022-08-09T09:10:02.444Z,26.30
2022-08-09T09:11:54.750Z,26.30
2022-08-09T09:13:57.969Z,26.30
2022-08-09T09:15:54.739Z,26.30
2022-08-09T09:17:54.745Z,26.30
2022-08-09T09:19:54.735Z,26.10
2022-08-09T09:21:54.749Z,26.00
2022-08-09T09:23:58.014Z,26.30
2022-08-09T09:26:02.256Z,26.40
2022-08-09T09:28:04.185Z,26.40
2022-08-09T09:30:10.486Z,26.50
2022-08-09T09:32:04.047Z,26.60
2022-08-09T09:33:56.959Z,26.30
2022-08-09T09:36:02.130Z,26.30
2022-08-09T09:37:54.775Z,26.40
2022-08-09T09:39:57.741Z,26.20
2022-08-09T09:41:54.749Z,26.10
2022-08-09T09:44:11.419Z,26.10
2022-08-09T09:46:39.155Z,26.10
2022-08-09T09:47:58.663Z,26.20
2022-08-09T09:50:07.807Z,26.50
2022-08-09T09:51:54.783Z,26.70
2022-08-09T09:54:01.046Z,26.50
2022-08-09T09:55:57.688Z,26.50
2022-08-09T09:58:03.629Z,26.50
2022-08-09T09:59:54.757Z,26.30
2022-08-09T10:01:54.772Z,26.40
2022-08-09T10:03:58.220Z,26.40
2022-08-09T10:06:03.792Z,26.50
2022-08-09T10:08:10.716Z,26.20
2022-08-09T10:09:55.327Z,26.50
2022-08-09T10:12:12.377Z,26.40
2022-08-09T10:13:54.777Z,26.40
2022-08-09T10:16:54.697Z,27.00
2022-08-09T10:17:56.455Z,27.00
2022-08-09T10:19:57.210Z,27.60
2022-08-09T10:21:54.785Z,27.60
2022-08-09T10:23:54.795Z,27.60
2022-08-09T10:26:06.267Z,27.20
2022-08-09T10:27:57.659Z,27.40
2022-08-09T10:30:22.115Z,27.10
2022-08-09T10:34:08.544Z,27.40
2022-08-09T10:35:54.879Z,27.10
2022-08-09T10:37:54.824Z,27.10
2022-08-09T10:39:54.901Z,27.40
2022-08-09T10:41:54.805Z,27.40
2022-08-09T10:43:59.540Z,27.50
2022-08-09T10:45:59.815Z,27.20
2022-08-09T10:48:16.614Z,27.40
2022-08-09T10:49:54.813Z,27.40
2022-08-09T10:51:54.896Z,27.40
2022-08-09T10:53:55.090Z,27.60
2022-08-09T10:55:58.418Z,27.70
2022-08-09T10:57:56.100Z,27.60
2022-08-09T10:59:57.850Z,28.00
2022-08-09T11:03:13.560Z,28.00
2022-08-09T11:03:59.878Z,28.20
2022-08-09T11:06:00.250Z,28.40
2022-08-09T11:07:57.564Z,28.50
2022-08-09T11:09:59.637Z,28.50
2022-08-09T11:12:26.400Z,27.90
2022-08-09T11:14:28.269Z,27.90
2022-08-09T11:16:34.929Z,28.00
2022-08-09T11:18:24.927Z,28.00
2022-08-09T11:20:24.849Z,28.20
2022-08-09T11:22:25.759Z,28.20
2022-08-09T11:24:24.872Z,28.20
2022-08-09T11:26:24.862Z,28.20
2022-08-09T11:28:30.888Z,28.10
2022-08-09T11:30:32.600Z,28.30
2022-08-09T11:32:24.906Z,28.10
2022-08-09T11:34:24.941Z,28.10
2022-08-09T11:36:30.498Z,28.00
2022-08-09T11:38:30.998Z,28.50
2022-08-09T11:40:24.869Z,28.60
2022-08-09T11:42:24.857Z,28.60
2022-08-09T11:44:24.936Z,28.40
2022-08-09T11:46:33.115Z,28.50
2022-08-09T11:48:26.509Z,28.50
2022-08-09T11:50:53.687Z,28.20
2022-08-09T11:52:56.897Z,28.20
2022-08-09T11:54:33.103Z,28.20
2022-08-09T11:56:42.852Z,28.20
2022-08-09T11:58:30.130Z,28.20
2022-08-09T12:00:24.919Z,28.80
2022-08-09T12:02:36.907Z,28.80
2022-08-09T12:04:32.171Z,28.70
2022-08-09T12:06:26.702Z,29.30
2022-08-09T12:08:24.974Z,29.50
2022-08-09T12:10:39.321Z,29.50
2022-08-09T12:12:28.800Z,29.30
2022-08-09T12:14:36.834Z,29.00
2022-08-09T12:16:37.427Z,28.80
2022-08-09T12:18:29.754Z,29.20
2022-08-09T12:20:24.931Z,29.20
2022-08-09T12:22:24.993Z,29.60
2022-08-09T12:24:25.711Z,29.10
2022-08-09T12:26:25.991Z,28.90
2022-08-09T12:28:59.089Z,28.80
2022-08-09T12:30:36.675Z,28.80
2022-08-09T12:32:25.029Z,28.70
2022-08-09T12:34:24.903Z,28.60
2022-08-09T12:36:31.511Z,28.70
2022-08-09T12:38:29.580Z,28.70
2022-08-09T12:40:25.066Z,28.70
2022-08-09T12:42:30.044Z,28.70
2022-08-09T12:44:24.923Z,29.10
2022-08-09T12:46:24.958Z,29.10
2022-08-09T12:48:31.148Z,29.10
2022-08-09T12:50:25.373Z,28.90
2022-08-09T12:52:42.797Z,29.00
2022-08-09T12:54:24.937Z,28.60
2022-08-09T12:56:39.940Z,28.70
2022-08-09T12:58:27.699Z,28.70
2022-08-09T13:00:25.663Z,29.20
2022-08-09T13:02:24.957Z,29.20
2022-08-09T13:04:37.523Z,28.80
2022-08-09T13:06:24.961Z,28.80
2022-08-09T13:08:39.850Z,29.00
2022-08-09T13:10:26.994Z,29.00
2022-08-09T13:12:25.036Z,29.00
2022-08-09T13:14:41.988Z,29.20
2022-08-09T13:16:24.965Z,29.20
2022-08-09T13:18:54.954Z,29.20
2022-08-09T13:21:20.637Z,29.20
2022-08-09T13:23:05.764Z,28.80
2022-08-09T13:24:55.232Z,28.60
2022-08-09T13:26:54.969Z,28.60
2022-08-09T13:28:54.983Z,28.40
2022-08-09T13:32:13.346Z,28.80
2022-08-09T13:32:54.980Z,29.00
2022-08-09T13:34:54.980Z,29.10
2022-08-09T13:36:55.076Z,29.10
2022-08-09T13:38:59.108Z,29.40
2022-08-09T13:41:54.257Z,29.50
2022-08-09T13:42:55.037Z,29.00
2022-08-09T13:44:54.978Z,29.00
2022-08-09T13:47:28.963Z,29.20
2022-08-09T13:48:55.002Z,29.20
2022-08-09T13:50:54.977Z,28.80
2022-08-09T13:52:55.013Z,28.60
2022-08-09T13:54:59.817Z,28.60
2022-08-09T13:56:54.985Z,28.60
2022-08-09T13:58:55.017Z,29.00
2022-08-09T14:00:54.985Z,29.00
2022-08-09T14:03:57.784Z,28.90
2022-08-09T14:04:59.937Z,28.90
2022-08-09T14:06:55.031Z,29.00
2022-08-09T14:08:55.025Z,28.90
2022-08-09T14:10:55.005Z,28.50
2022-08-09T14:12:55.013Z,28.50
2022-08-09T14:14:56.580Z,28.60
2022-08-09T14:16:55.010Z,28.50
2022-08-09T14:18:55.013Z,28.40
2022-08-09T14:20:55.048Z,28.60
2022-08-09T14:22:55.018Z,28.60
2022-08-09T14:24:55.019Z,28.50
2022-08-09T14:26:55.043Z,28.40
2022-08-09T14:28:55.035Z,28.40
2022-08-09T14:30:55.029Z,28.20
2022-08-09T14:32:55.090Z,28.20
2022-08-09T14:34:55.880Z,28.30
2022-08-09T14:36:55.036Z,28.30
2022-08-09T14:38:55.090Z,28.20
2022-08-09T14:41:01.113Z,28.20
2022-08-09T14:42:55.037Z,28.20
2022-08-09T14:44:59.801Z,28.20
2022-08-09T14:47:14.753Z,28.10
2022-08-09T14:48:55.070Z,28.00
2022-08-09T14:50:55.038Z,28.00
2022-08-09T14:52:55.056Z,28.00
2022-08-09T14:54:55.041Z,28.00
2022-08-09T14:56:58.945Z,28.00
2022-08-09T14:58:56.087Z,28.10
2022-08-09T15:00:57.775Z,28.10
2022-08-09T15:02:55.057Z,27.80
2022-08-09T15:04:55.067Z,27.80
2022-08-09T15:06:55.076Z,27.70
2022-08-09T15:08:56.623Z,27.70
2022-08-09T15:11:00.443Z,27.70
2022-08-09T15:12:55.065Z,27.60
2022-08-09T15:14:55.060Z,27.50
2022-08-09T15:16:55.059Z,27.60
2022-08-09T15:18:55.079Z,27.60
2022-08-09T15:21:58.156Z,27.60
2022-08-09T15:24:03.765Z,27.60
2022-08-09T15:25:39.376Z,27.50
2022-08-09T15:27:25.058Z,27.60
2022-08-09T15:30:48.245Z,27.50
2022-08-09T15:31:28.471Z,27.50
2022-08-09T15:33:25.153Z,27.50
2022-08-09T15:35:44.084Z,27.40
2022-08-09T15:37:37.476Z,27.30
2022-08-09T15:39:25.162Z,27.00
2022-08-09T15:41:32.140Z,27.00
2022-08-09T15:43:36.742Z,27.00
2022-08-09T15:45:29.545Z,27.00
2022-08-09T15:47:32.810Z,27.00
2022-08-09T15:49:25.166Z,27.00
2022-08-09T15:52:02.301Z,27.00
2022-08-09T15:54:05.275Z,27.00
2022-08-09T15:55:25.179Z,27.00
2022-08-09T15:57:34.080Z,26.90
2022-08-09T15:59:25.181Z,26.90
2022-08-09T16:01:25.313Z,26.90
2022-08-09T16:03:29.505Z,26.90
2022-08-09T16:05:25.286Z,26.90
2022-08-09T16:07:25.758Z,27.00
2022-08-09T16:09:32.695Z,27.00
2022-08-09T16:11:25.259Z,27.10
2022-08-09T16:13:20.675Z,26.80
2022-08-09T16:16:09.846Z,26.70
2022-08-09T16:17:37.791Z,26.80
2022-08-09T16:19:48.988Z,26.80
2022-08-09T16:21:37.821Z,26.80
2022-08-09T16:23:37.791Z,26.80
2022-08-09T16:25:40.302Z,26.80
2022-08-09T16:27:37.805Z,26.80
2022-08-09T16:29:50.693Z,26.80
2022-08-09T16:32:11.066Z,26.80
2022-08-09T16:33:38.864Z,26.80
2022-08-09T16:35:53.211Z,26.70
2022-08-09T16:37:55.091Z,26.60
2022-08-09T16:39:47.883Z,26.60
2022-08-09T16:42:02.202Z,26.50
2022-08-09T16:43:40.568Z,26.50
2022-08-09T16:45:44.231Z,26.60
2022-08-09T16:48:43.399Z,26.60
2022-08-09T16:50:29.988Z,26.50
2022-08-09T16:51:37.817Z,26.50
2022-08-09T16:53:47.217Z,26.50
2022-08-09T16:55:58.732Z,26.40
2022-08-09T16:58:08.888Z,26.40
2022-08-09T16:59:37.821Z,26.30
2022-08-09T17:01:37.847Z,26.20
2022-08-09T17:03:37.828Z,26.20
2022-08-09T17:06:07.112Z,26.20
2022-08-09T17:08:43.017Z,26.20
2022-08-09T17:09:44.000Z,26.10
2022-08-09T17:11:41.810Z,26.00
2022-08-09T17:13:37.843Z,26.00
2022-08-09T17:16:00.257Z,26.00
2022-08-09T17:17:50.400Z,26.00
2022-08-09T17:19:47.254Z,26.00
2022-08-09T17:21:37.887Z,25.90
2022-08-09T17:24:27.833Z,25.90
2022-08-09T17:25:37.843Z,25.90
2022-08-09T17:27:38.402Z,25.80
2022-08-09T17:29:41.121Z,25.80
2022-08-09T17:31:38.908Z,25.70
2022-08-09T17:33:38.064Z,25.60
2022-08-09T17:35:41.045Z,25.60
2022-08-09T17:38:02.400Z,25.60
2022-08-09T17:39:52.520Z,25.60
2022-08-09T17:41:38.986Z,25.50
2022-08-09T17:43:38.266Z,25.50
2022-08-09T17:46:02.137Z,25.40
2022-08-09T17:47:49.298Z,25.30
2022-08-09T17:49:50.570Z,25.20
2022-08-09T17:51:37.924Z,25.20
2022-08-09T17:53:43.216Z,25.20
2022-08-09T17:55:49.512Z,25.10
2022-08-09T17:58:05.719Z,25.10
2022-08-09T17:59:38.323Z,25.10
2022-08-09T18:01:58.034Z,25.00
2022-08-09T18:03:37.964Z,25.00
2022-08-09T18:05:43.464Z,25.00
2022-08-09T18:07:37.884Z,24.70
2022-08-09T18:09:41.494Z,24.70
2022-08-09T18:12:05.834Z,24.70
2022-08-09T18:13:39.784Z,24.60
2022-08-09T18:16:04.958Z,24.50
2022-08-09T18:18:02.164Z,24.40
2022-08-09T18:20:58.919Z,24.40
2022-08-09T18:22:13.378Z,24.40
2022-08-09T18:24:10.627Z,24.40
2022-08-09T18:26:07.909Z,24.20
2022-08-09T18:28:21.484Z,24.10
2022-08-09T18:30:42.421Z,24.00
2022-08-09T18:32:07.892Z,24.00
2022-08-09T18:34:07.920Z,23.90
2022-08-09T18:36:07.962Z,23.80
2022-08-09T18:38:07.931Z,23.80
2022-08-09T18:40:07.969Z,23.40
2022-08-09T18:42:08.963Z,23.40
2022-08-09T18:44:13.197Z,23.30
2022-08-09T18:46:47.206Z,23.30
2022-08-09T18:48:07.926Z,23.30
2022-08-09T18:50:08.911Z,23.30
2022-08-09T18:52:07.981Z,23.00
2022-08-09T18:54:16.430Z,22.80
2022-08-09T18:56:07.938Z,22.80
2022-08-09T18:58:07.909Z,22.60
2022-08-09T19:00:07.940Z,22.60
2022-08-09T19:02:08.070Z,22.50
2022-08-09T19:04:08.344Z,22.40
2022-08-09T19:06:14.530Z,22.20
2022-08-09T19:08:10.680Z,22.00
2022-08-09T19:10:13.799Z,22.00
2022-08-09T19:12:07.937Z,21.90
2022-08-09T19:14:07.926Z,21.80
2022-08-09T19:16:09.335Z,21.60
2022-08-09T19:18:17.095Z,21.60
2022-08-09T19:20:07.933Z,21.50
2022-08-09T19:22:07.991Z,21.40
2022-08-09T19:24:32.988Z,21.30
2022-08-09T19:26:08.034Z,21.30
2022-08-09T19:28:08.005Z,21.30
2022-08-09T19:30:22.199Z,21.00
2022-08-09T19:32:08.057Z,20.90
2022-08-09T19:34:08.044Z,20.80
2022-08-09T19:36:11.766Z,20.60
2022-08-09T19:38:08.029Z,20.60
2022-08-09T19:40:08.051Z,20.40
2022-08-09T19:42:08.028Z,20.20
2022-08-09T19:44:07.981Z,20.00
2022-08-09T19:46:07.972Z,20.00
2022-08-09T19:48:10.613Z,20.00
2022-08-09T19:50:50.520Z,20.20
2022-08-09T19:52:08.076Z,20.30
2022-08-09T19:54:07.966Z,20.40
2022-08-09T19:56:07.963Z,20.40
2022-08-09T19:58:16.546Z,20.30
2022-08-09T20:00:08.013Z,20.40
2022-08-09T20:02:17.177Z,20.40
2022-08-09T20:04:22.178Z,20.40
2022-08-09T20:06:22.386Z,20.40
2022-08-09T20:08:08.018Z,20.40
2022-08-09T20:10:17.824Z,20.40
2022-08-09T20:12:07.973Z,20.40
2022-08-09T20:14:08.073Z,20.40
2022-08-09T20:16:34.296Z,20.30
2022-08-09T20:18:08.414Z,20.30
2022-08-09T20:20:37.985Z,20.20
2022-08-09T20:22:38.299Z,20.20
2022-08-09T20:24:40.854Z,20.20
2022-08-09T20:26:38.030Z,20.50
2022-08-09T20:28:47.646Z,20.50
2022-08-09T20:30:38.041Z,20.70
2022-08-09T20:32:38.138Z,21.00
2022-08-09T20:34:38.098Z,21.20
2022-08-09T20:36:38.007Z,21.20
2022-08-09T20:39:02.628Z,21.20
2022-08-09T20:40:38.059Z,21.20
2022-08-09T20:42:38.242Z,21.30
2022-08-09T20:44:38.088Z,21.30
2022-08-09T20:46:44.297Z,21.30
2022-08-09T20:48:38.127Z,21.30
2022-08-09T20:50:48.145Z,21.40
2022-08-09T20:52:38.096Z,21.30
2022-08-09T20:54:38.053Z,21.30
2022-08-09T20:56:38.050Z,21.30
2022-08-09T20:58:38.292Z,21.30
2022-08-09T21:00:38.097Z,21.40
2022-08-09T21:02:38.243Z,21.40
2022-08-09T21:05:57.087Z,21.30
2022-08-09T21:06:38.125Z,21.30
2022-08-09T21:08:38.032Z,21.30
2022-08-09T21:10:38.060Z,21.30
2022-08-09T21:12:38.049Z,21.30
2022-08-09T21:14:40.559Z,21.30
2022-08-09T21:16:38.119Z,21.20
2022-08-09T21:20:05.202Z,21.10
2022-08-09T21:20:38.469Z,21.00
2022-08-09T21:22:39.492Z,21.10
2022-08-09T21:24:38.139Z,21.10
2022-08-09T21:26:38.195Z,21.00
2022-08-09T21:28:38.075Z,21.00
2022-08-09T21:30:40.350Z,21.00
2022-08-09T21:32:38.065Z,20.90
2022-08-09T21:34:38.057Z,20.90
2022-08-09T21:36:38.161Z,21.00
2022-08-09T21:38:38.066Z,21.00
2022-08-09T21:40:38.203Z,20.90
2022-08-09T21:42:38.053Z,20.80
2022-08-09T21:44:38.088Z,20.80
2022-08-09T21:46:38.132Z,20.80
2022-08-09T21:48:38.065Z,20.70
2022-08-09T21:50:39.207Z,20.60
2022-08-09T21:52:38.180Z,20.60
2022-08-09T21:54:38.061Z,20.70
2022-08-09T21:56:44.862Z,20.60
2022-08-09T21:58:38.069Z,20.60
2022-08-09T22:00:38.062Z,20.50
2022-08-09T22:02:40.083Z,20.50
2022-08-09T22:04:56.783Z,20.50
2022-08-09T22:06:38.137Z,20.50
2022-08-09T22:08:38.187Z,20.50
2022-08-09T22:11:49.108Z,20.50
2022-08-09T22:12:38.855Z,20.50
2022-08-09T22:14:38.075Z,20.50
2022-08-09T22:16:38.094Z,20.50
2022-08-09T22:18:38.094Z,20.50
2022-08-09T22:21:09.675Z,20.50
2022-08-09T22:23:10.481Z,20.40
2022-08-09T22:26:04.303Z,20.40
2022-08-09T22:27:08.087Z,20.40
2022-08-09T22:29:09.542Z,20.40
2022-08-09T22:31:08.105Z,20.40
2022-08-09T22:33:09.624Z,20.40
2022-08-09T22:36:01.134Z,20.40
2022-08-09T22:37:08.100Z,20.30
2022-08-09T22:39:08.202Z,20.40
2022-08-09T22:41:08.171Z,20.40
2022-08-09T22:43:16.013Z,20.30
2022-08-09T22:48:11.135Z,20.30
2022-08-09T22:48:13.808Z,20.30
2022-08-09T22:49:10.415Z,20.30
2022-08-09T22:51:10.979Z,20.30
2022-08-09T22:53:08.115Z,20.20
2022-08-09T22:55:08.140Z,20.20
2022-08-09T22:57:08.134Z,20.20
2022-08-09T22:59:57.637Z,20.20
2022-08-09T23:01:08.252Z,20.20
2022-08-09T23:03:12.789Z,20.20
2022-08-09T23:05:08.207Z,20.20
2022-08-09T23:07:11.234Z,20.20
2022-08-09T23:09:08.208Z,20.20
2022-08-09T23:11:08.222Z,20.10
2022-08-09T23:13:12.956Z,20.10
2022-08-09T23:17:08.187Z,20.10
2022-08-09T23:19:08.137Z,20.00
2022-08-09T23:25:16.434Z,19.90
2022-08-09T23:27:16.401Z,19.90
2022-08-09T23:29:16.413Z,19.90
2022-08-09T23:31:16.421Z,19.90
2022-08-09T23:33:16.446Z,19.90
2022-08-09T23:35:16.416Z,19.80
2022-08-09T23:37:20.523Z,19.80
2022-08-09T23:39:16.431Z,19.80
2022-08-09T23:41:27.930Z,19.80
2022-08-09T23:43:16.389Z,19.80
2022-08-09T23:45:38.245Z,19.70
2022-08-09T23:47:16.398Z,19.70
2022-08-09T23:49:16.404Z,19.60
2022-08-09T23:51:16.425Z,19.60
2022-08-09T23:53:16.505Z,19.60
2022-08-09T23:55:17.842Z,19.60
2022-08-09T23:57:16.414Z,19.50
2022-08-09T23:59:16.405Z,19.60
